sensor_id;sensor_type;location;lat;lon;timestamp;pressure;altitude;pressure_sealevel;temperature;humidity
56737;BME280;42618;51.226;4.910;2023-04-28T00:00:02;49607.41;;;-146.94;67.98
56737;BME280;42618;51.226;4.910;2023-04-28T00:02:31;49567.53;;;-146.94;66.74
56737;BME280;42618;51.226;4.910;2023-04-28T00:04:58;49605.41;;;-146.94;66.98
56737;BME280;42618;51.226;4.910;2023-04-28T00:07:25;49599.41;;;-146.94;67.48
56737;BME280;42618;51.226;4.910;2023-04-28T00:09:52;49595.44;;;-146.94;67.46
56737;BME280;42618;51.226;4.910;2023-04-28T00:12:19;49611.38;;;-146.94;66.13
56737;BME280;42618;51.226;4.910;2023-04-28T00:14:46;49589.44;;;-146.94;65.51
56737;BME280;42618;51.226;4.910;2023-04-28T00:17:12;49581.47;;;-146.94;65.38
56737;BME280;42618;51.226;4.910;2023-04-28T00:19:39;49607.41;;;-146.94;64.81
56737;BME280;42618;51.226;4.910;2023-04-28T00:22:06;49587.47;;;-146.94;63.92
56737;BME280;42618;51.226;4.910;2023-04-28T00:24:32;49577.50;;;-146.94;64.65
56737;BME280;42618;51.226;4.910;2023-04-28T00:27:01;49623.34;;;-146.94;64.21
56737;BME280;42618;51.226;4.910;2023-04-28T00:29:28;49595.44;;;-146.94;63.50
56737;BME280;42618;51.226;4.910;2023-04-28T00:31:55;49599.41;;;-146.94;65.07
56737;BME280;42618;51.226;4.910;2023-04-28T00:34:22;49615.38;;;-146.94;65.70
56737;BME280;42618;51.226;4.910;2023-04-28T00:36:49;49595.44;;;-146.94;65.64
56737;BME280;42618;51.226;4.910;2023-04-28T00:39:16;49577.50;;;-146.94;65.33
56737;BME280;42618;51.226;4.910;2023-04-28T00:41:43;49611.38;;;-146.94;65.41
56737;BME280;42618;51.226;4.910;2023-04-28T00:44:11;49623.34;;;-146.94;65.21
56737;BME280;42618;51.226;4.910;2023-04-28T00:46:38;49623.34;;;-146.94;65.99
56737;BME280;42618;51.226;4.910;2023-04-28T00:49:05;49567.53;;;-146.94;66.54
56737;BME280;42618;51.226;4.910;2023-04-28T00:51:32;49655.25;;;-146.94;66.41
56737;BME280;42618;51.226;4.910;2023-04-28T00:53:59;49619.34;;;-146.94;65.38
56737;BME280;42618;51.226;4.910;2023-04-28T00:56:28;49641.28;;;-146.94;65.82
56737;BME280;42618;51.226;4.910;2023-04-28T00:58:57;49641.28;;;-146.94;65.16
56737;BME280;42618;51.226;4.910;2023-04-28T01:01:24;49631.31;;;-146.94;65.32
56737;BME280;42618;51.226;4.910;2023-04-28T01:03:51;49599.41;;;-146.94;65.27
56737;BME280;42618;51.226;4.910;2023-04-28T01:06:18;49581.47;;;-146.94;65.90
56737;BME280;42618;51.226;4.910;2023-04-28T01:08:48;49607.41;;;-146.94;66.23
56737;BME280;42618;51.226;4.910;2023-04-28T01:11:16;49603.41;;;-146.94;65.71
56737;BME280;42618;51.226;4.910;2023-04-28T01:14:09;49659.22;;;-146.94;66.23
56737;BME280;42618;51.226;4.910;2023-04-28T01:16:39;49619.34;;;-146.94;65.87
56737;BME280;42618;51.226;4.910;2023-04-28T01:19:07;49597.44;;;-146.94;66.56
56737;BME280;42618;51.226;4.910;2023-04-28T01:21:38;49625.34;;;-146.94;66.77
56737;BME280;42618;51.226;4.910;2023-04-28T01:24:17;49595.44;;;-146.94;66.53
56737;BME280;42618;51.226;4.910;2023-04-28T01:26:44;49597.44;;;-146.94;66.95
56737;BME280;42618;51.226;4.910;2023-04-28T01:29:11;49625.34;;;-146.94;67.65
56737;BME280;42618;51.226;4.910;2023-04-28T01:31:40;49603.41;;;-146.94;68.51
56737;BME280;42618;51.226;4.910;2023-04-28T01:34:06;49627.31;;;-146.94;68.78
56737;BME280;42618;51.226;4.910;2023-04-28T01:36:34;49623.34;;;-146.94;69.11
56737;BME280;42618;51.226;4.910;2023-04-28T01:39:04;49595.44;;;-146.94;70.65
56737;BME280;42618;51.226;4.910;2023-04-28T01:41:31;49619.34;;;-146.94;70.33
56737;BME280;42618;51.226;4.910;2023-04-28T01:44:00;49619.34;;;-146.94;69.95
56737;BME280;42618;51.226;4.910;2023-04-28T01:46:27;49619.34;;;-146.94;71.81
56737;BME280;42618;51.226;4.910;2023-04-28T01:48:54;49621.34;;;-146.94;71.78
56737;BME280;42618;51.226;4.910;2023-04-28T01:51:20;49647.25;;;-146.94;73.81
56737;BME280;42618;51.226;4.910;2023-04-28T01:53:47;49617.38;;;-146.94;74.91
56737;BME280;42618;51.226;4.910;2023-04-28T01:56:14;49609.38;;;-146.94;76.04
56737;BME280;42618;51.226;4.910;2023-04-28T01:58:41;49611.38;;;-146.94;74.96
56737;BME280;42618;51.226;4.910;2023-04-28T02:01:08;49625.34;;;-146.94;75.07
56737;BME280;42618;51.226;4.910;2023-04-28T02:03:35;49607.41;;;-146.94;76.66
56737;BME280;42618;51.226;4.910;2023-04-28T02:06:02;49619.34;;;-146.94;77.96
56737;BME280;42618;51.226;4.910;2023-04-28T02:08:30;49595.44;;;-146.94;78.32
56737;BME280;42618;51.226;4.910;2023-04-28T02:10:57;49627.31;;;-146.94;78.70
56737;BME280;42618;51.226;4.910;2023-04-28T02:13:24;49627.31;;;-146.94;78.74
56737;BME280;42618;51.226;4.910;2023-04-28T02:15:51;49587.47;;;-146.94;79.22
56737;BME280;42618;51.226;4.910;2023-04-28T02:18:19;49625.34;;;-146.94;80.34
56737;BME280;42618;51.226;4.910;2023-04-28T02:20:46;49639.28;;;-146.94;81.20
56737;BME280;42618;51.226;4.910;2023-04-28T02:23:13;49605.41;;;-146.94;82.29
56737;BME280;42618;51.226;4.910;2023-04-28T02:25:39;49615.38;;;-146.94;82.32
56737;BME280;42618;51.226;4.910;2023-04-28T02:28:06;49603.41;;;-146.94;82.48
56737;BME280;42618;51.226;4.910;2023-04-28T02:30:33;49617.38;;;-146.94;82.11
56737;BME280;42618;51.226;4.910;2023-04-28T02:33:00;49649.25;;;-146.94;81.81
56737;BME280;42618;51.226;4.910;2023-04-28T02:35:26;49635.31;;;-146.94;82.27
56737;BME280;42618;51.226;4.910;2023-04-28T02:37:53;49659.22;;;-146.94;81.65
56737;BME280;42618;51.226;4.910;2023-04-28T02:40:20;49635.31;;;-146.94;81.84
56737;BME280;42618;51.226;4.910;2023-04-28T02:42:47;49649.25;;;-146.94;81.71
56737;BME280;42618;51.226;4.910;2023-04-28T02:45:14;49663.22;;;-146.94;81.31
56737;BME280;42618;51.226;4.910;2023-04-28T02:47:41;49603.41;;;-146.94;82.10
56737;BME280;42618;51.226;4.910;2023-04-28T02:50:08;49627.31;;;-146.94;82.04
56737;BME280;42618;51.226;4.910;2023-04-28T02:52:34;49621.34;;;-146.94;81.96
56737;BME280;42618;51.226;4.910;2023-04-28T02:55:01;49627.31;;;-146.94;81.94
56737;BME280;42618;51.226;4.910;2023-04-28T02:57:30;49603.41;;;-146.94;81.08
56737;BME280;42618;51.226;4.910;2023-04-28T02:59:57;49609.38;;;-146.94;81.18
56737;BME280;42618;51.226;4.910;2023-04-28T03:02:28;49621.34;;;-146.94;81.37
56737;BME280;42618;51.226;4.910;2023-04-28T03:04:55;49649.25;;;-146.94;81.37
56737;BME280;42618;51.226;4.910;2023-04-28T03:07:22;49619.34;;;-146.94;80.94
56737;BME280;42618;51.226;4.910;2023-04-28T03:09:48;49639.28;;;-146.94;81.43
56737;BME280;42618;51.226;4.910;2023-04-28T03:12:15;49635.31;;;-146.94;80.87
56737;BME280;42618;51.226;4.910;2023-04-28T03:14:44;49635.31;;;-146.94;80.65
56737;BME280;42618;51.226;4.910;2023-04-28T03:17:11;49631.31;;;-146.94;81.34
56737;BME280;42618;51.226;4.910;2023-04-28T03:19:40;49647.25;;;-146.94;81.40
56737;BME280;42618;51.226;4.910;2023-04-28T03:22:07;49617.38;;;-146.94;81.35
56737;BME280;42618;51.226;4.910;2023-04-28T03:24:33;49611.38;;;-146.94;81.05
56737;BME280;42618;51.226;4.910;2023-04-28T03:27:00;49637.28;;;-146.94;81.15
56737;BME280;42618;51.226;4.910;2023-04-28T03:29:29;49595.44;;;-146.94;81.28
56737;BME280;42618;51.226;4.910;2023-04-28T03:31:56;49639.28;;;-146.94;81.50
56737;BME280;42618;51.226;4.910;2023-04-28T03:34:22;49635.31;;;-146.94;81.73
56737;BME280;42618;51.226;4.910;2023-04-28T03:36:49;49631.31;;;-146.94;81.60
56737;BME280;42618;51.226;4.910;2023-04-28T03:39:23;49623.34;;;-146.94;81.38
56737;BME280;42618;51.226;4.910;2023-04-28T03:41:49;49609.38;;;-146.94;81.00
56737;BME280;42618;51.226;4.910;2023-04-28T03:44:35;49623.34;;;-146.94;80.87
56737;BME280;42618;51.226;4.910;2023-04-28T03:47:02;49627.31;;;-146.94;81.00
56737;BME280;42618;51.226;4.910;2023-04-28T03:49:29;49647.25;;;-146.94;82.11
56737;BME280;42618;51.226;4.910;2023-04-28T03:51:56;49639.28;;;-146.94;81.64
56737;BME280;42618;51.226;4.910;2023-04-28T03:54:25;49671.19;;;-146.94;81.72
56737;BME280;42618;51.226;4.910;2023-04-28T03:56:52;49615.38;;;-146.94;81.66
56737;BME280;42618;51.226;4.910;2023-04-28T03:59:18;49625.34;;;-146.94;81.23
56737;BME280;42618;51.226;4.910;2023-04-28T04:01:45;49627.31;;;-146.94;80.70
56737;BME280;42618;51.226;4.910;2023-04-28T04:04:12;49629.31;;;-146.94;80.75
56737;BME280;42618;51.226;4.910;2023-04-28T04:06:39;49631.31;;;-146.94;81.92
56737;BME280;42618;51.226;4.910;2023-04-28T04:09:08;49621.34;;;-146.94;82.18
56737;BME280;42618;51.226;4.910;2023-04-28T04:11:34;49631.31;;;-146.94;83.25
56737;BME280;42618;51.226;4.910;2023-04-28T04:14:01;49647.25;;;-146.94;84.23
56737;BME280;42618;51.226;4.910;2023-04-28T04:16:29;49641.28;;;-146.94;84.59
56737;BME280;42618;51.226;4.910;2023-04-28T04:18:57;49635.31;;;-146.94;84.75
56737;BME280;42618;51.226;4.910;2023-04-28T04:21:39;49609.38;;;-146.94;84.17
56737;BME280;42618;51.226;4.910;2023-04-28T04:24:06;49643.28;;;-146.94;84.28
56737;BME280;42618;51.226;4.910;2023-04-28T04:26:33;49619.34;;;-146.94;84.47
56737;BME280;42618;51.226;4.910;2023-04-28T04:29:02;49679.16;;;-146.94;85.08
56737;BME280;42618;51.226;4.910;2023-04-28T04:31:31;49643.28;;;-146.94;85.56
56737;BME280;42618;51.226;4.910;2023-04-28T04:33:58;49625.34;;;-146.94;86.06
56737;BME280;42618;51.226;4.910;2023-04-28T04:36:25;49623.34;;;-146.94;86.44
56737;BME280;42618;51.226;4.910;2023-04-28T04:38:53;49627.31;;;-146.94;87.08
56737;BME280;42618;51.226;4.910;2023-04-28T04:41:21;49615.38;;;-146.94;87.89
56737;BME280;42618;51.226;4.910;2023-04-28T04:43:55;49639.28;;;-146.94;87.53
56737;BME280;42618;51.226;4.910;2023-04-28T04:46:28;49631.31;;;-146.94;86.69
56737;BME280;42618;51.226;4.910;2023-04-28T04:48:55;49635.31;;;-146.94;86.62
56737;BME280;42618;51.226;4.910;2023-04-28T04:51:22;49651.25;;;-146.94;87.32
56737;BME280;42618;51.226;4.910;2023-04-28T04:53:49;49629.31;;;-146.94;87.39
56737;BME280;42618;51.226;4.910;2023-04-28T04:56:15;49645.28;;;-146.94;88.14
56737;BME280;42618;51.226;4.910;2023-04-28T04:58:42;49605.41;;;-146.94;88.48
56737;BME280;42618;51.226;4.910;2023-04-28T05:01:44;49639.28;;;-146.94;89.17
56737;BME280;42618;51.226;4.910;2023-04-28T05:04:11;49639.28;;;-146.94;88.78
56737;BME280;42618;51.226;4.910;2023-04-28T05:06:39;49671.19;;;-146.94;89.76
56737;BME280;42618;51.226;4.910;2023-04-28T05:09:06;49637.28;;;-146.94;90.14
56737;BME280;42618;51.226;4.910;2023-04-28T05:11:32;49615.38;;;-146.94;90.89
56737;BME280;42618;51.226;4.910;2023-04-28T05:13:59;49651.25;;;-146.94;90.83
56737;BME280;42618;51.226;4.910;2023-04-28T05:16:27;49645.28;;;-146.94;91.51
56737;BME280;42618;51.226;4.910;2023-04-28T05:19:06;49679.16;;;-146.94;91.33
56737;BME280;42618;51.226;4.910;2023-04-28T05:21:33;49649.25;;;-146.94;91.31
56737;BME280;42618;51.226;4.910;2023-04-28T05:23:59;49649.25;;;-146.94;91.46
56737;BME280;42618;51.226;4.910;2023-04-28T05:26:26;49647.25;;;-146.94;92.36
56737;BME280;42618;51.226;4.910;2023-04-28T05:28:57;49651.25;;;-146.94;92.40
56737;BME280;42618;51.226;4.910;2023-04-28T05:31:24;49639.28;;;-146.94;92.61
56737;BME280;42618;51.226;4.910;2023-04-28T05:33:52;49659.22;;;-146.94;93.17
56737;BME280;42618;51.226;4.910;2023-04-28T05:36:19;49663.22;;;-146.94;93.70
56737;BME280;42618;51.226;4.910;2023-04-28T05:38:46;49661.22;;;-146.94;93.93
56737;BME280;42618;51.226;4.910;2023-04-28T05:41:12;49647.25;;;-146.94;95.02
56737;BME280;42618;51.226;4.910;2023-04-28T05:43:39;49665.22;;;-146.94;96.02
56737;BME280;42618;51.226;4.910;2023-04-28T05:46:07;49611.38;;;-146.94;96.16
56737;BME280;42618;51.226;4.910;2023-04-28T05:48:54;49675.19;;;-146.94;95.72
56737;BME280;42618;51.226;4.910;2023-04-28T05:51:21;49673.19;;;-146.94;95.89
56737;BME280;42618;51.226;4.910;2023-04-28T05:53:48;49641.28;;;-146.94;96.05
56737;BME280;42618;51.226;4.910;2023-04-28T05:56:15;49621.34;;;-146.94;96.52
56737;BME280;42618;51.226;4.910;2023-04-28T05:58:42;49661.22;;;-146.94;96.50
56737;BME280;42618;51.226;4.910;2023-04-28T06:01:13;49651.25;;;-146.94;96.07
56737;BME280;42618;51.226;4.910;2023-04-28T06:03:40;49659.22;;;-146.94;95.87
56737;BME280;42618;51.226;4.910;2023-04-28T06:06:08;49643.28;;;-146.94;96.14
56737;BME280;42618;51.226;4.910;2023-04-28T06:08:36;49647.25;;;-146.94;96.12
56737;BME280;42618;51.226;4.910;2023-04-28T06:11:04;49663.22;;;-146.94;96.31
56737;BME280;42618;51.226;4.910;2023-04-28T06:13:31;49667.19;;;-146.94;95.77
56737;BME280;42618;51.226;4.910;2023-04-28T06:15:58;49659.22;;;-146.94;95.77
56737;BME280;42618;51.226;4.910;2023-04-28T06:18:25;49653.25;;;-146.94;95.86
56737;BME280;42618;51.226;4.910;2023-04-28T06:20:52;49653.25;;;-146.94;95.56
56737;BME280;42618;51.226;4.910;2023-04-28T06:23:19;49671.19;;;-146.94;95.98
56737;BME280;42618;51.226;4.910;2023-04-28T06:25:49;49641.28;;;-146.94;95.66
56737;BME280;42618;51.226;4.910;2023-04-28T06:28:15;49629.31;;;-146.94;96.13
56737;BME280;42618;51.226;4.910;2023-04-28T06:30:42;49653.25;;;-146.94;96.15
56737;BME280;42618;51.226;4.910;2023-04-28T06:33:09;49675.19;;;-146.94;96.14
56737;BME280;42618;51.226;4.910;2023-04-28T06:35:37;49667.19;;;-146.94;96.24
56737;BME280;42618;51.226;4.910;2023-04-28T06:38:05;49639.28;;;-146.94;95.71
56737;BME280;42618;51.226;4.910;2023-04-28T06:40:32;49649.25;;;-146.94;95.61
56737;BME280;42618;51.226;4.910;2023-04-28T06:43:00;49623.34;;;-146.94;95.22
56737;BME280;42618;51.226;4.910;2023-04-28T06:45:38;49653.25;;;-146.94;95.48
56737;BME280;42618;51.226;4.910;2023-04-28T06:48:04;49645.28;;;-146.94;95.83
56737;BME280;42618;51.226;4.910;2023-04-28T06:50:36;49649.25;;;-146.94;96.14
56737;BME280;42618;51.226;4.910;2023-04-28T06:53:05;49661.22;;;-146.94;96.38
56737;BME280;42618;51.226;4.910;2023-04-28T06:55:33;49653.25;;;-146.94;96.51
56737;BME280;42618;51.226;4.910;2023-04-28T06:58:00;49649.25;;;-146.94;97.06
56737;BME280;42618;51.226;4.910;2023-04-28T07:00:27;49647.25;;;-146.94;98.35
56737;BME280;42618;51.226;4.910;2023-04-28T07:02:54;49627.31;;;-146.94;99.21
56737;BME280;42618;51.226;4.910;2023-04-28T07:05:21;49665.22;;;-146.94;100.00
56737;BME280;42618;51.226;4.910;2023-04-28T07:07:48;49655.25;;;-146.94;100.00
56737;BME280;42618;51.226;4.910;2023-04-28T07:10:15;49653.25;;;-146.94;100.00
56737;BME280;42618;51.226;4.910;2023-04-28T07:12:42;49633.31;;;-146.94;100.00
56737;BME280;42618;51.226;4.910;2023-04-28T07:15:09;49643.28;;;-146.94;100.00
56737;BME280;42618;51.226;4.910;2023-04-28T07:17:36;49643.28;;;-146.94;100.00
56737;BME280;42618;51.226;4.910;2023-04-28T07:20:04;49657.22;;;-146.94;100.00
56737;BME280;42618;51.226;4.910;2023-04-28T07:22:32;49639.28;;;-146.94;100.00
56737;BME280;42618;51.226;4.910;2023-04-28T07:24:59;49657.22;;;-146.94;100.00
56737;BME280;42618;51.226;4.910;2023-04-28T07:27:25;49665.22;;;-146.94;100.00
56737;BME280;42618;51.226;4.910;2023-04-28T07:29:52;49643.28;;;-146.94;100.00
56737;BME280;42618;51.226;4.910;2023-04-28T07:32:19;49613.38;;;-146.94;100.00
56737;BME280;42618;51.226;4.910;2023-04-28T07:34:46;49663.22;;;-146.94;100.00
56737;BME280;42618;51.226;4.910;2023-04-28T07:37:13;49663.22;;;-146.94;100.00
56737;BME280;42618;51.226;4.910;2023-04-28T07:39:39;49659.22;;;-146.94;100.00
56737;BME280;42618;51.226;4.910;2023-04-28T07:42:07;49621.34;;;-146.94;100.00
56737;BME280;42618;51.226;4.910;2023-04-28T07:44:34;49647.25;;;-146.94;100.00
56737;BME280;42618;51.226;4.910;2023-04-28T07:47:01;49655.25;;;-146.94;100.00
56737;BME280;42618;51.226;4.910;2023-04-28T07:49:28;49657.22;;;-146.94;100.00
56737;BME280;42618;51.226;4.910;2023-04-28T07:51:55;49607.41;;;-146.94;100.00
56737;BME280;42618;51.226;4.910;2023-04-28T07:54:22;49633.31;;;-146.94;100.00
56737;BME280;42618;51.226;4.910;2023-04-28T07:56:49;49663.22;;;-146.94;100.00
56737;BME280;42618;51.226;4.910;2023-04-28T07:59:16;49677.16;;;-146.94;100.00
56737;BME280;42618;51.226;4.910;2023-04-28T08:01:43;49647.25;;;-146.94;100.00
56737;BME280;42618;51.226;4.910;2023-04-28T08:04:10;49685.13;;;-146.94;100.00
56737;BME280;42618;51.226;4.910;2023-04-28T08:06:37;49639.28;;;-146.94;100.00
56737;BME280;42618;51.226;4.910;2023-04-28T08:09:05;49661.22;;;-146.94;100.00
56737;BME280;42618;51.226;4.910;2023-04-28T08:11:32;49667.19;;;-146.94;100.00
56737;BME280;42618;51.226;4.910;2023-04-28T08:13:59;49663.22;;;-146.94;100.00
56737;BME280;42618;51.226;4.910;2023-04-28T08:16:29;49647.25;;;-146.94;100.00
56737;BME280;42618;51.226;4.910;2023-04-28T08:18:56;49669.19;;;-146.94;100.00
56737;BME280;42618;51.226;4.910;2023-04-28T08:21:24;49659.22;;;-146.94;100.00
56737;BME280;42618;51.226;4.910;2023-04-28T08:23:52;49631.31;;;-146.94;100.00
56737;BME280;42618;51.226;4.910;2023-04-28T08:26:19;49695.09;;;-146.94;100.00
56737;BME280;42618;51.226;4.910;2023-04-28T08:28:45;49587.47;;;-146.94;100.00
56737;BME280;42618;51.226;4.910;2023-04-28T08:31:14;49649.25;;;-146.94;100.00
56737;BME280;42618;51.226;4.910;2023-04-28T08:33:41;49655.25;;;-146.94;100.00
56737;BME280;42618;51.226;4.910;2023-04-28T08:36:14;49623.34;;;-146.94;100.00
56737;BME280;42618;51.226;4.910;2023-04-28T08:38:41;49695.09;;;-146.94;100.00
56737;BME280;42618;51.226;4.910;2023-04-28T08:41:08;49651.25;;;-146.94;100.00
56737;BME280;42618;51.226;4.910;2023-04-28T08:43:36;49667.19;;;-146.94;100.00
56737;BME280;42618;51.226;4.910;2023-04-28T08:46:05;49655.25;;;-146.94;100.00
56737;BME280;42618;51.226;4.910;2023-04-28T08:48:42;49671.19;;;-146.94;100.00
56737;BME280;42618;51.226;4.910;2023-04-28T08:51:15;49669.19;;;-146.94;100.00
56737;BME280;42618;51.226;4.910;2023-04-28T08:53:49;49631.31;;;-146.94;100.00
56737;BME280;42618;51.226;4.910;2023-04-28T08:56:20;49661.22;;;-146.94;100.00
56737;BME280;42618;51.226;4.910;2023-04-28T08:58:51;49641.28;;;-146.94;100.00
56737;BME280;42618;51.226;4.910;2023-04-28T09:01:18;49685.13;;;-146.94;100.00
56737;BME280;42618;51.226;4.910;2023-04-28T09:03:45;49649.25;;;-146.94;100.00
56737;BME280;42618;51.226;4.910;2023-04-28T09:06:13;49671.19;;;-146.94;100.00
56737;BME280;42618;51.226;4.910;2023-04-28T09:08:40;49641.28;;;-146.94;100.00
56737;BME280;42618;51.226;4.910;2023-04-28T09:11:10;49639.28;;;-146.94;100.00
56737;BME280;42618;51.226;4.910;2023-04-28T09:13:39;49669.19;;;-146.94;100.00
56737;BME280;42618;51.226;4.910;2023-04-28T09:16:07;49625.34;;;-146.94;100.00
56737;BME280;42618;51.226;4.910;2023-04-28T09:18:33;49631.31;;;-146.94;100.00
56737;BME280;42618;51.226;4.910;2023-04-28T09:21:10;49663.22;;;-146.94;100.00
56737;BME280;42618;51.226;4.910;2023-04-28T09:23:47;49643.28;;;-146.94;100.00
56737;BME280;42618;51.226;4.910;2023-04-28T09:26:15;49669.19;;;-146.94;100.00
56737;BME280;42618;51.226;4.910;2023-04-28T09:28:41;49643.28;;;-146.94;100.00
56737;BME280;42618;51.226;4.910;2023-04-28T09:31:24;49667.19;;;-146.94;100.00
56737;BME280;42618;51.226;4.910;2023-04-28T09:33:57;49665.22;;;-146.94;99.69
56737;BME280;42618;51.226;4.910;2023-04-28T09:36:28;49661.22;;;-146.94;98.74
56737;BME280;42618;51.226;4.910;2023-04-28T09:38:57;49629.31;;;-146.94;98.08
56737;BME280;42618;51.226;4.910;2023-04-28T09:41:40;49641.28;;;-146.94;98.17
56737;BME280;42618;51.226;4.910;2023-04-28T09:44:15;49611.38;;;-146.94;98.30
56737;BME280;42618;51.226;4.910;2023-04-28T09:46:44;49637.28;;;-146.94;97.54
56737;BME280;42618;51.226;4.910;2023-04-28T09:49:11;49673.19;;;-146.94;96.09
56737;BME280;42618;51.226;4.910;2023-04-28T09:51:39;49621.34;;;-146.94;95.68
56737;BME280;42618;51.226;4.910;2023-04-28T09:54:06;49677.16;;;-146.94;94.72
56737;BME280;42618;51.226;4.910;2023-04-28T09:56:34;49647.25;;;-146.94;94.02
56737;BME280;42618;51.226;4.910;2023-04-28T09:59:06;49649.25;;;-146.94;93.62
56737;BME280;42618;51.226;4.910;2023-04-28T10:01:37;49629.31;;;-146.94;93.63
56737;BME280;42618;51.226;4.910;2023-04-28T10:04:07;49585.47;;;-146.94;92.05
56737;BME280;42618;51.226;4.910;2023-04-28T10:06:34;49657.22;;;-146.94;91.71
56737;BME280;42618;51.226;4.910;2023-04-28T10:09:04;49651.25;;;-146.94;90.52
56737;BME280;42618;51.226;4.910;2023-04-28T10:11:33;49641.28;;;-146.94;89.82
56737;BME280;42618;51.226;4.910;2023-04-28T10:14:01;49667.19;;;-146.94;88.64
56737;BME280;42618;51.226;4.910;2023-04-28T10:16:30;49651.25;;;-146.94;89.04
56737;BME280;42618;51.226;4.910;2023-04-28T10:18:58;49645.28;;;-146.94;88.45
56737;BME280;42618;51.226;4.910;2023-04-28T10:21:25;49659.22;;;-146.94;88.05
56737;BME280;42618;51.226;4.910;2023-04-28T10:24:08;49667.19;;;-146.94;87.70
56737;BME280;42618;51.226;4.910;2023-04-28T10:27:01;49641.28;;;-146.94;88.72
56737;BME280;42618;51.226;4.910;2023-04-28T10:29:30;49643.28;;;-146.94;88.50
56737;BME280;42618;51.226;4.910;2023-04-28T10:34:40;49635.31;;;-146.94;88.17
56737;BME280;42618;51.226;4.910;2023-04-28T10:37:07;49629.31;;;-146.94;88.45
56737;BME280;42618;51.226;4.910;2023-04-28T10:39:33;49635.31;;;-146.94;88.28
56737;BME280;42618;51.226;4.910;2023-04-28T10:42:01;49639.28;;;-146.94;88.09
56737;BME280;42618;51.226;4.910;2023-04-28T10:47:05;49667.19;;;-146.94;89.28
56737;BME280;42618;51.226;4.910;2023-04-28T11:00:42;49623.34;;;-146.94;89.35
56737;BME280;42618;51.226;4.910;2023-04-28T11:08:55;49675.19;;;-146.94;89.64
56737;BME280;42618;51.226;4.910;2023-04-28T11:11:24;49661.22;;;-146.94;89.66
56737;BME280;42618;51.226;4.910;2023-04-28T11:13:53;49643.28;;;-146.94;89.55
56737;BME280;42618;51.226;4.910;2023-04-28T11:16:22;49653.25;;;-146.94;88.25
56737;BME280;42618;51.226;4.910;2023-04-28T11:18:55;49647.25;;;-146.94;86.94
56737;BME280;42618;51.226;4.910;2023-04-28T11:21:23;49627.31;;;-146.94;87.00
56737;BME280;42618;51.226;4.910;2023-04-28T11:23:50;49637.28;;;-146.94;85.39
56737;BME280;42618;51.226;4.910;2023-04-28T11:26:18;49593.44;;;-146.94;85.39
56737;BME280;42618;51.226;4.910;2023-04-28T11:28:46;49655.25;;;-146.94;84.55
56737;BME280;42618;51.226;4.910;2023-04-28T11:31:14;49643.28;;;-146.94;84.65
56737;BME280;42618;51.226;4.910;2023-04-28T11:38:54;49675.19;;;-146.94;89.00
56737;BME280;42618;51.226;4.910;2023-04-28T11:41:22;49633.31;;;-146.94;90.85
56737;BME280;42618;51.226;4.910;2023-04-28T11:43:49;49655.25;;;-146.94;91.90
56737;BME280;42618;51.226;4.910;2023-04-28T11:46:23;49631.31;;;-146.94;92.25
56737;BME280;42618;51.226;4.910;2023-04-28T11:49:02;49625.34;;;-146.94;90.43
56737;BME280;42618;51.226;4.910;2023-04-28T11:51:31;49647.25;;;-146.94;89.21
56737;BME280;42618;51.226;4.910;2023-04-28T11:53:59;49669.19;;;-146.94;88.93
56737;BME280;42618;51.226;4.910;2023-04-28T11:56:27;49663.22;;;-146.94;89.80
56737;BME280;42618;51.226;4.910;2023-04-28T11:59:04;49653.25;;;-146.94;89.93
56737;BME280;42618;51.226;4.910;2023-04-28T12:01:32;49645.28;;;-146.94;91.33
56737;BME280;42618;51.226;4.910;2023-04-28T12:03:59;49673.19;;;-146.94;92.09
56737;BME280;42618;51.226;4.910;2023-04-28T12:06:26;49665.22;;;-146.94;92.13
56737;BME280;42618;51.226;4.910;2023-04-28T12:08:54;49659.22;;;-146.94;91.57
56737;BME280;42618;51.226;4.910;2023-04-28T12:11:21;49675.19;;;-146.94;91.36
56737;BME280;42618;51.226;4.910;2023-04-28T12:14:07;49655.25;;;-146.94;90.57
56737;BME280;42618;51.226;4.910;2023-04-28T12:16:40;49663.22;;;-146.94;89.02
56737;BME280;42618;51.226;4.910;2023-04-28T12:19:10;49663.22;;;-146.94;88.59
56737;BME280;42618;51.226;4.910;2023-04-28T12:21:38;49647.25;;;-146.94;86.20
56737;BME280;42618;51.226;4.910;2023-04-28T12:24:20;49667.19;;;-146.94;85.94
56737;BME280;42618;51.226;4.910;2023-04-28T12:26:48;49635.31;;;-146.94;86.32
56737;BME280;42618;51.226;4.910;2023-04-28T12:29:36;49661.22;;;-146.94;86.61
56737;BME280;42618;51.226;4.910;2023-04-28T12:32:13;49679.16;;;-146.94;86.63
56737;BME280;42618;51.226;4.910;2023-04-28T12:34:41;49655.25;;;-146.94;85.87
56737;BME280;42618;51.226;4.910;2023-04-28T12:37:08;49679.16;;;-146.94;85.02
56737;BME280;42618;51.226;4.910;2023-04-28T12:39:35;49665.22;;;-146.94;85.49
56737;BME280;42618;51.226;4.910;2023-04-28T12:42:05;49635.31;;;-146.94;85.79
56737;BME280;42618;51.226;4.910;2023-04-28T12:44:33;49679.16;;;-146.94;85.03
56737;BME280;42618;51.226;4.910;2023-04-28T12:47:06;49641.28;;;-146.94;85.08
56737;BME280;42618;51.226;4.910;2023-04-28T12:49:34;49639.28;;;-146.94;84.48
56737;BME280;42618;51.226;4.910;2023-04-28T12:52:02;49701.09;;;-146.94;84.35
56737;BME280;42618;51.226;4.910;2023-04-28T12:54:29;49667.19;;;-146.94;83.92
56737;BME280;42618;51.226;4.910;2023-04-28T12:56:56;49653.25;;;-146.94;83.62
56737;BME280;42618;51.226;4.910;2023-04-28T12:59:23;49653.25;;;-146.94;83.88
56737;BME280;42618;51.226;4.910;2023-04-28T13:01:50;49653.25;;;-146.94;83.38
56737;BME280;42618;51.226;4.910;2023-04-28T13:04:17;49663.22;;;-146.94;83.66
56737;BME280;42618;51.226;4.910;2023-04-28T13:06:44;49693.13;;;-146.94;82.47
56737;BME280;42618;51.226;4.910;2023-04-28T13:09:13;49641.28;;;-146.94;81.48
56737;BME280;42618;51.226;4.910;2023-04-28T13:11:41;49651.25;;;-146.94;80.34